Time;durP1;ratioP1;P1;durP2;ratioP2;P2;SDS_P1;SDS_P2;PMS_P1;PMS_P2;Temp;Humidity;BMP_temperature;BMP_pressure;BME280_temperature;BME280_humidity;BME280_pressure;Samples;Min_cycle;Max_cycle;Signal;HPM_P1;HPM_P2
2023/08/11 00:02:23;;;;;;;20.75;5.40;;;24.80;74.80;;;;;;5023207;28;20034;-56
2023/08/11 00:04:52;;;;;;;16.45;5.15;;;24.80;74.90;;;;;;5024848;28;20093;-56
2023/08/11 00:07:17;;;;;;;19.15;5.32;;;24.70;75.00;;;;;;5023828;28;20141;-57
2023/08/11 00:09:44;;;;;;;26.10;5.03;;;24.70;75.00;;;;;;5025099;28;20171;-57
2023/08/11 00:12:10;;;;;;;15.63;4.82;;;24.60;75.00;;;;;;5023543;28;20528;-56
2023/08/11 00:14:36;;;;;;;19.80;5.18;;;24.70;75.20;;;;;;5025098;28;20114;-56
2023/08/11 00:17:02;;;;;;;9.80;4.90;;;24.60;75.20;;;;;;5025119;28;20022;-57
2023/08/11 00:19:29;;;;;;;15.02;4.88;;;24.60;75.30;;;;;;5023478;28;20348;-57
2023/08/11 00:21:56;;;;;;;18.85;5.50;;;24.60;75.50;;;;;;5024793;28;20410;-56
2023/08/11 00:24:21;;;;;;;15.02;4.82;;;24.50;75.50;;;;;;5024888;28;20056;-56
2023/08/11 00:26:47;;;;;;;11.98;4.60;;;24.50;75.50;;;;;;5040101;28;20403;-57
2023/08/11 00:29:12;;;;;;;12.60;4.32;;;24.50;75.50;;;;;;5007156;28;20056;-56
2023/08/11 00:31:38;;;;;;;13.57;4.00;;;24.50;75.60;;;;;;5023396;28;20034;-57
2023/08/11 00:34:03;;;;;;;16.38;5.40;;;24.50;75.70;;;;;;5023667;28;20038;-56
2023/08/11 00:36:29;;;;;;;12.48;4.43;;;24.40;75.70;;;;;;5023478;28;20037;-57
2023/08/11 00:39:00;;;;;;;10.65;4.75;;;24.40;75.70;;;;;;5007160;28;20034;-56
2023/08/11 00:41:26;;;;;;;11.18;4.20;;;24.40;75.80;;;;;;5024905;28;20045;-56
2023/08/11 00:43:51;;;;;;;10.00;4.30;;;24.30;75.80;;;;;;5024881;28;20061;-56
2023/08/11 00:46:17;;;;;;;15.23;4.65;;;24.30;75.80;;;;;;5023392;28;20056;-56
2023/08/11 00:48:43;;;;;;;13.25;4.80;;;24.40;76.00;;;;;;4990901;28;20097;-56
2023/08/11 00:51:13;;;;;;;11.15;4.90;;;24.40;76.10;;;;;;4990607;28;20190;-56
2023/08/11 00:53:38;;;;;;;17.95;4.72;;;24.30;76.10;;;;;;5007717;28;20033;-56
2023/08/11 00:56:04;;;;;;;12.95;5.00;;;24.30;76.30;;;;;;5006805;28;20032;-57
2023/08/11 00:58:30;;;;;;;12.73;4.55;;;24.30;76.30;;;;;;5007105;28;20462;-57
2023/08/11 01:00:57;;;;;;;10.95;4.78;;;24.30;76.30;;;;;;5006928;28;20030;-56
2023/08/11 01:03:23;;;;;;;10.15;4.63;;;24.30;76.40;;;;;;5023169;28;20386;-56
2023/08/11 01:05:59;;;;;;;12.70;4.50;;;24.20;76.40;;;;;;5023061;28;20030;-56
2023/08/11 01:08:30;;;;;;;12.43;4.60;;;24.20;76.60;;;;;;4991646;28;20042;-56
2023/08/11 01:11:19;;;;;;;7.97;4.30;;;24.20;76.80;;;;;;5007273;28;20053;-56
2023/08/11 01:14:02;;;;;;;10.05;4.50;;;24.10;76.80;;;;;;5024605;28;20026;-56
2023/08/11 01:16:27;;;;;;;17.45;5.03;;;24.20;76.90;;;;;;5011527;28;20081;-56
2023/08/11 01:18:53;;;;;;;8.55;4.03;;;24.10;76.90;;;;;;5026850;28;20435;-57
2023/08/11 01:21:19;;;;;;;13.07;4.40;;;24.10;77.10;;;;;;5028204;28;20367;-56
2023/08/11 01:23:44;;;;;;;12.00;4.45;;;24.10;77.10;;;;;;5010497;28;20128;-57
2023/08/11 01:26:11;;;;;;;9.80;4.55;;;24.10;77.20;;;;;;4994169;28;20133;-56
2023/08/11 01:28:36;;;;;;;9.27;4.50;;;24.10;77.20;;;;;;5043621;28;20037;-56
2023/08/11 01:31:03;;;;;;;12.88;4.47;;;24.00;77.30;;;;;;5026842;28;20034;-57
2023/08/11 01:33:28;;;;;;;8.45;4.30;;;24.00;77.40;;;;;;5026774;28;20034;-56
2023/08/11 01:35:54;;;;;;;8.60;4.50;;;24.00;77.60;;;;;;5010287;28;20403;-56
2023/08/11 01:38:19;;;;;;;8.48;4.53;;;24.00;77.60;;;;;;5010398;28;20029;-57
2023/08/11 01:40:45;;;;;;;10.48;4.20;;;23.90;77.60;;;;;;5026089;28;20030;-56
2023/08/11 01:43:11;;;;;;;7.88;4.38;;;23.90;77.70;;;;;;5027760;28;20102;-56
2023/08/11 01:45:37;;;;;;;10.23;4.50;;;23.90;77.80;;;;;;5010009;28;20406;-56
2023/08/11 01:48:03;;;;;;;9.35;4.35;;;23.90;77.80;;;;;;5026352;28;20034;-56
2023/08/11 01:50:28;;;;;;;8.68;4.03;;;23.90;77.80;;;;;;5026135;28;20172;-56
2023/08/11 01:52:54;;;;;;;5.90;4.20;;;23.80;77.70;;;;;;5026270;28;20025;-56
2023/08/11 01:55:20;;;;;;;10.23;4.55;;;23.80;77.90;;;;;;5009704;28;20397;-56
2023/08/11 01:57:45;;;;;;;10.68;4.88;;;23.80;78.00;;;;;;5026048;28;20396;-56
2023/08/11 02:00:14;;;;;;;8.52;4.63;;;23.80;78.10;;;;;;4993289;28;20030;-56
2023/08/11 02:02:43;;;;;;;7.22;4.55;;;23.80;78.30;;;;;;5026076;28;20463;-56
2023/08/11 02:05:11;;;;;;;6.53;3.97;;;23.70;78.20;;;;;;5009686;28;20041;-57
2023/08/11 02:07:37;;;;;;;8.85;4.55;;;23.80;78.40;;;;;;5009662;28;20030;-57
2023/08/11 02:10:03;;;;;;;6.60;4.57;;;23.70;78.40;;;;;;5009663;28;20061;-56
2023/08/11 02:12:28;;;;;;;6.70;4.00;;;23.70;78.50;;;;;;5027190;28;20034;-57
2023/08/11 02:14:54;;;;;;;5.85;3.90;;;23.70;78.60;;;;;;5025798;28;20362;-56
2023/08/11 02:17:19;;;;;;;9.85;3.97;;;23.70;78.70;;;;;;5027139;28;20026;-56
2023/08/11 02:19:45;;;;;;;6.70;3.75;;;23.70;78.80;;;;;;5027148;28;20022;-56
2023/08/11 02:22:11;;;;;;;10.50;4.28;;;23.60;78.70;;;;;;5009369;28;20025;-56
2023/08/11 02:24:37;;;;;;;8.63;4.45;;;23.60;78.80;;;;;;5025455;28;20328;-56
2023/08/11 02:27:02;;;;;;;6.28;4.22;;;23.60;79.00;;;;;;5026607;28;20022;-56
2023/08/11 02:29:28;;;;;;;8.63;4.18;;;23.60;79.00;;;;;;5025658;28;20169;-56
2023/08/11 02:31:53;;;;;;;8.95;4.68;;;23.60;79.10;;;;;;5025394;28;20042;-57
2023/08/11 02:34:19;;;;;;;5.75;4.05;;;23.50;79.10;;;;;;5025258;28;20030;-56
2023/08/11 02:36:44;;;;;;;6.72;3.97;;;23.50;79.30;;;;;;5009122;28;20028;-57
2023/08/11 02:39:10;;;;;;;8.93;4.10;;;23.50;79.40;;;;;;5009017;28;20037;-56
2023/08/11 02:41:35;;;;;;;6.47;4.07;;;23.50;79.50;;;;;;5025298;28;20030;-56
2023/08/11 02:44:02;;;;;;;6.03;3.47;;;23.50;79.50;;;;;;5025395;28;20090;-56
2023/08/11 02:46:27;;;;;;;4.43;3.70;;;23.50;79.60;;;;;;5025334;28;20025;-56
2023/08/11 02:48:53;;;;;;;6.47;3.88;;;23.40;79.80;;;;;;5008886;28;20073;-56
2023/08/11 02:51:18;;;;;;;6.97;4.07;;;23.40;80.50;;;;;;5026508;28;20030;-57
2023/08/11 02:53:44;;;;;;;4.55;3.55;;;23.40;79.80;;;;;;5008825;28;20022;-56
2023/08/11 02:56:13;;;;;;;8.10;4.07;;;23.40;79.80;;;;;;5026223;28;20029;-57
2023/08/11 02:58:38;;;;;;;6.15;3.83;;;23.40;79.80;;;;;;5009177;28;20375;-56
2023/08/11 03:01:04;;;;;;;5.72;3.97;;;23.40;79.80;;;;;;5025061;28;20078;-56
2023/08/11 03:03:30;;;;;;;4.80;3.42;;;23.40;80.00;;;;;;5026175;28;20117;-56
2023/08/11 03:05:57;;;;;;;7.45;4.30;;;23.30;80.10;;;;;;5024606;28;20026;-56
2023/08/11 03:08:22;;;;;;;5.43;3.38;;;23.30;80.10;;;;;;5041270;28;20040;-56
2023/08/11 03:10:48;;;;;;;4.70;3.83;;;23.30;80.80;;;;;;5024576;28;20029;-56
2023/08/11 03:13:13;;;;;;;4.95;3.55;;;23.30;80.10;;;;;;5026071;28;20033;-56
2023/08/11 03:15:39;;;;;;;6.85;3.58;;;23.30;80.20;;;;;;5025999;28;20037;-56
2023/08/11 03:18:04;;;;;;;10.63;4.05;;;23.30;80.20;;;;;;5026089;28;20033;-56
2023/08/11 03:20:30;;;;;;;7.25;3.70;;;23.20;80.80;;;;;;5024458;28;20030;-56
2023/08/11 03:22:55;;;;;;;6.05;3.72;;;23.20;80.20;;;;;;5024589;28;20026;-56
2023/08/11 03:25:21;;;;;;;11.27;4.00;;;23.20;80.30;;;;;;5025719;28;20026;-56
2023/08/11 03:27:47;;;;;;;4.00;3.60;;;23.20;80.30;;;;;;5024374;28;20443;-56
2023/08/11 03:30:12;;;;;;;6.38;3.50;;;23.10;80.30;;;;;;5025573;28;20026;-56
2023/08/11 03:32:38;;;;;;;6.97;3.97;;;23.10;80.30;;;;;;5025444;28;20049;-57
2023/08/11 03:35:05;;;;;;;4.32;3.63;;;23.10;80.40;;;;;;5025543;28;20033;-56
2023/08/11 03:37:31;;;;;;;4.63;3.60;;;23.10;80.60;;;;;;5007332;28;20026;-56
2023/08/11 03:39:57;;;;;;;6.55;3.38;;;23.10;80.60;;;;;;4990245;28;20029;-56
2023/08/11 03:42:23;;;;;;;6.70;3.72;;;23.00;80.70;;;;;;5023465;28;20026;-56
2023/08/11 03:44:49;;;;;;;3.63;3.22;;;23.00;80.80;;;;;;5024424;28;20034;-56
2023/08/11 03:47:15;;;;;;;8.07;3.70;;;23.00;80.90;;;;;;5023975;28;20044;-56
2023/08/11 03:49:40;;;;;;;23.20;5.80;;;23.00;80.90;;;;;;5025388;28;20026;-56
2023/08/11 03:52:06;;;;;;;23.52;6.05;;;23.00;80.90;;;;;;5026639;28;20121;-56
2023/08/11 03:54:31;;;;;;;22.45;4.80;;;23.00;81.00;;;;;;5026375;28;20033;-57
2023/08/11 03:56:57;;;;;;;23.13;5.13;;;22.90;81.00;;;;;;5024053;28;20022;-56
2023/08/11 03:59:22;;;;;;;23.83;5.55;;;22.90;81.10;;;;;;5023632;28;20038;-56
2023/08/11 04:01:48;;;;;;;25.98;5.68;;;22.90;81.20;;;;;;5024197;28;20032;-56
2023/08/11 04:04:13;;;;;;;19.80;4.65;;;22.90;81.20;;;;;;5007501;28;20136;-56
2023/08/11 04:06:39;;;;;;;22.15;5.85;;;22.80;81.20;;;;;;5024348;28;20041;-56
2023/08/11 04:09:06;;;;;;;19.30;6.03;;;22.80;81.20;;;;;;5023743;28;20049;-56
2023/08/11 04:11:32;;;;;;;20.35;5.95;;;22.80;81.30;;;;;;5007871;28;20088;-56
2023/08/11 04:13:59;;;;;;;26.33;6.20;;;22.80;81.40;;;;;;5007751;28;20081;-56
2023/08/11 04:16:25;;;;;;;33.63;6.22;;;22.80;81.50;;;;;;5025043;28;20026;-56
2023/08/11 04:18:50;;;;;;;20.42;5.93;;;22.80;81.50;;;;;;5023665;28;20041;-56
2023/08/11 04:21:17;;;;;;;21.30;6.30;;;22.70;81.60;;;;;;5023570;28;20025;-56
2023/08/11 04:23:42;;;;;;;26.75;7.90;;;22.80;81.70;;;;;;5007478;28;20045;-56
2023/08/11 04:26:09;;;;;;;17.75;7.20;;;22.70;81.60;;;;;;5024965;28;20052;-56
2023/08/11 04:28:36;;;;;;;24.75;7.35;;;22.70;81.80;;;;;;5024307;28;20030;-56
2023/08/11 04:31:01;;;;;;;26.55;7.38;;;22.70;81.90;;;;;;5023580;28;20030;-57
2023/08/11 04:33:29;;;;;;;27.27;7.07;;;22.70;81.80;;;;;;5026350;28;20052;-56
2023/08/11 04:35:55;;;;;;;24.20;7.05;;;22.60;81.80;;;;;;5006600;28;20049;-56
2023/08/11 04:38:20;;;;;;;20.05;6.45;;;22.60;81.80;;;;;;5025265;28;20366;-56
2023/08/11 04:40:50;;;;;;;17.05;6.43;;;22.60;81.90;;;;;;5007360;28;20057;-56
2023/08/11 04:43:15;;;;;;;28.77;7.10;;;22.60;82.00;;;;;;5007570;28;20033;-56
2023/08/11 04:45:41;;;;;;;15.13;5.75;;;22.60;82.10;;;;;;5006921;28;20029;-56
2023/08/11 04:48:07;;;;;;;19.35;6.28;;;22.60;82.30;;;;;;5025481;28;20112;-56
2023/08/11 04:50:32;;;;;;;18.33;6.38;;;22.60;82.30;;;;;;5028656;28;20034;-56
2023/08/11 04:52:58;;;;;;;17.23;5.93;;;22.50;82.20;;;;;;5028622;28;20527;-56
2023/08/11 04:55:23;;;;;;;12.77;5.75;;;22.50;82.60;;;;;;5027401;28;20026;-57
2023/08/11 04:57:49;;;;;;;25.10;6.35;;;22.50;82.80;;;;;;5026960;28;20419;-57
2023/08/11 05:00:16;;;;;;;18.88;5.72;;;22.50;82.60;;;;;;5027197;28;20030;-56
2023/08/11 05:02:43;;;;;;;19.83;5.32;;;22.60;82.60;;;;;;5028607;28;20153;-57
2023/08/11 05:05:09;;;;;;;20.58;5.55;;;22.50;82.50;;;;;;5027132;28;20069;-57
2023/08/11 05:07:34;;;;;;;16.42;5.90;;;22.50;82.70;;;;;;5010640;28;20118;-56
2023/08/11 05:10:00;;;;;;;11.48;5.40;;;22.50;82.90;;;;;;5028089;28;20026;-57
2023/08/11 05:12:25;;;;;;;13.77;5.22;;;22.50;83.20;;;;;;5028211;28;20045;-56
2023/08/11 05:14:51;;;;;;;17.73;5.97;;;22.50;83.10;;;;;;5028271;28;20026;-56
2023/08/11 05:17:16;;;;;;;12.23;5.05;;;22.50;83.20;;;;;;5028308;28;20050;-57
2023/08/11 05:19:42;;;;;;;14.55;4.75;;;22.40;83.20;;;;;;5027086;28;20060;-57
2023/08/11 05:22:07;;;;;;;14.75;4.75;;;22.40;83.30;;;;;;5028213;28;20030;-57
2023/08/11 05:24:33;;;;;;;16.35;5.43;;;22.40;83.20;;;;;;5028043;28;20042;-56
2023/08/11 05:26:58;;;;;;;17.30;5.55;;;22.40;83.20;;;;;;5026702;28;20045;-57
2023/08/11 05:29:24;;;;;;;15.93;5.10;;;22.40;83.10;;;;;;5026726;28;20041;-56
2023/08/11 05:31:49;;;;;;;11.15;4.90;;;22.40;83.10;;;;;;5010114;28;20026;-56
2023/08/11 05:34:15;;;;;;;12.63;4.60;;;22.40;83.00;;;;;;5010224;28;20121;-56
2023/08/11 05:36:40;;;;;;;15.88;5.13;;;22.40;83.00;;;;;;5026388;28;20037;-57
2023/08/11 05:39:08;;;;;;;8.70;4.47;;;22.40;83.20;;;;;;5027847;28;20034;-57
2023/08/11 05:41:33;;;;;;;16.55;4.85;;;22.40;83.20;;;;;;5010214;28;20082;-56
2023/08/11 05:43:59;;;;;;;11.45;4.15;;;22.30;83.20;;;;;;5026391;28;20034;-56
2023/08/11 05:46:25;;;;;;;10.52;5.28;;;22.40;83.50;;;;;;5026348;28;20029;-57
2023/08/11 05:48:51;;;;;;;17.70;4.82;;;22.30;84.30;;;;;;5009839;28;20137;-56
2023/08/11 05:51:16;;;;;;;20.42;5.10;;;22.30;84.00;;;;;;5026146;28;20117;-56
2023/08/11 05:53:42;;;;;;;13.00;4.90;;;22.20;84.60;;;;;;5009760;28;20120;-56
2023/08/11 05:56:08;;;;;;;13.05;4.80;;;22.20;85.20;;;;;;5027505;28;20022;-57
2023/08/11 05:58:33;;;;;;;19.33;5.47;;;22.10;85.50;;;;;;5042453;28;20106;-57
2023/08/11 06:01:01;;;;;;;13.85;4.80;;;22.10;85.70;;;;;;5026679;28;20034;-56
2023/08/11 06:03:30;;;;;;;10.02;4.50;;;22.00;86.00;;;;;;5027366;28;20104;-56
2023/08/11 06:06:02;;;;;;;7.95;4.30;;;22.00;86.20;;;;;;5009703;28;20034;-56
2023/08/11 06:08:28;;;;;;;8.90;4.20;;;21.90;86.50;;;;;;5009991;28;20026;-56
2023/08/11 06:10:55;;;;;;;16.08;4.35;;;21.90;86.80;;;;;;5025787;28;20480;-57
2023/08/11 06:13:21;;;;;;;15.23;4.32;;;21.80;87.80;;;;;;5025722;28;20093;-56
2023/08/11 06:15:47;;;;;;;9.63;5.07;;;21.80;87.40;;;;;;5009421;28;20030;-56
2023/08/11 06:18:13;;;;;;;35.75;5.85;;;21.80;87.90;;;;;;5027066;28;20080;-56
2023/08/11 06:20:39;;;;;;;22.38;5.63;;;21.80;88.10;;;;;;5009342;28;20030;-56
2023/08/11 06:23:04;;;;;;;20.35;5.45;;;21.80;88.30;;;;;;5025515;28;20546;-56
2023/08/11 06:25:30;;;;;;;18.52;5.35;;;21.80;88.60;;;;;;5024423;28;20113;-57
2023/08/11 06:27:55;;;;;;;14.32;4.28;;;21.70;89.20;;;;;;5026932;28;20034;-56
2023/08/11 06:30:21;;;;;;;12.50;4.80;;;21.70;88.60;;;;;;5025302;28;20053;-57
2023/08/11 06:32:46;;;;;;;15.50;4.78;;;21.70;88.70;;;;;;5025540;28;20022;-56
2023/08/11 06:35:12;;;;;;;11.95;4.78;;;21.70;89.10;;;;;;5025271;28;20056;-57
2023/08/11 06:37:38;;;;;;;18.88;4.78;;;21.70;89.20;;;;;;5025249;28;20053;-56
2023/08/11 06:40:04;;;;;;;14.88;4.80;;;21.70;89.70;;;;;;5024762;28;20380;-56
2023/08/11 06:42:30;;;;;;;10.75;4.20;;;21.70;89.70;;;;;;5025283;28;20054;-56
2023/08/11 06:44:55;;;;;;;11.20;4.40;;;21.70;89.60;;;;;;5025215;28;20088;-56
2023/08/11 06:47:21;;;;;;;10.93;4.47;;;21.70;89.60;;;;;;5024938;28;20057;-56
2023/08/11 06:49:47;;;;;;;7.55;4.13;;;21.70;89.50;;;;;;5025106;28;20026;-56
2023/08/11 06:52:12;;;;;;;5.53;4.05;;;21.70;89.90;;;;;;5024838;28;20044;-56
2023/08/11 06:54:39;;;;;;;16.75;4.85;;;21.70;90.10;;;;;;5041284;28;20328;-57
2023/08/11 06:57:05;;;;;;;15.85;4.63;;;21.70;90.10;;;;;;5021391;28;20156;-56
2023/08/11 06:59:30;;;;;;;13.60;4.35;;;21.70;90.20;;;;;;5021677;28;20501;-57
2023/08/11 07:01:56;;;;;;;8.95;4.50;;;21.70;90.20;;;;;;5006624;28;20286;-56
2023/08/11 07:04:22;;;;;;;12.07;4.18;;;21.70;90.30;;;;;;5018498;28;20029;-56
2023/08/11 07:06:47;;;;;;;9.65;4.40;;;21.70;90.30;;;;;;5024360;28;20094;-56
2023/08/11 07:09:13;;;;;;;10.13;4.00;;;21.70;90.20;;;;;;5024525;28;20034;-57
2023/08/11 07:11:38;;;;;;;7.88;3.88;;;21.70;90.30;;;;;;5040046;28;20060;-57
2023/08/11 07:14:04;;;;;;;8.60;3.97;;;21.70;90.40;;;;;;5024427;28;20026;-57
2023/08/11 07:16:30;;;;;;;6.38;4.00;;;21.70;90.40;;;;;;5024430;28;20057;-57
2023/08/11 07:18:55;;;;;;;7.38;3.80;;;21.70;90.50;;;;;;5025753;28;20034;-57
2023/08/11 07:21:21;;;;;;;10.95;4.40;;;21.70;90.50;;;;;;5023830;28;20050;-57
2023/08/11 07:23:47;;;;;;;12.77;4.22;;;21.70;90.40;;;;;;5023538;28;20054;-57
2023/08/11 07:26:12;;;;;;;14.18;4.10;;;21.70;90.30;;;;;;5025648;28;20030;-56
2023/08/11 07:28:38;;;;;;;6.45;4.10;;;21.70;90.40;;;;;;5024289;28;20100;-56
2023/08/11 07:31:03;;;;;;;8.43;3.88;;;21.70;90.50;;;;;;5025494;28;20034;-56
2023/08/11 07:33:29;;;;;;;7.97;3.85;;;21.80;90.50;;;;;;5023645;28;20033;-57
2023/08/11 07:35:54;;;;;;;8.25;4.03;;;21.80;91.00;;;;;;5023778;28;20026;-56
2023/08/11 07:38:20;;;;;;;22.38;4.13;;;21.80;90.40;;;;;;5011486;28;20446;-56
2023/08/11 07:40:47;;;;;;;12.05;4.22;;;21.80;90.40;;;;;;5005847;28;20026;-56
2023/08/11 07:43:12;;;;;;;18.73;4.35;;;21.80;90.30;;;;;;5004028;28;20038;-56
2023/08/11 07:45:38;;;;;;;18.52;4.95;;;21.80;90.40;;;;;;5005858;28;20053;-56
2023/08/11 07:48:04;;;;;;;18.10;5.50;;;21.80;90.50;;;;;;5037974;28;20446;-56
2023/08/11 07:50:29;;;;;;;28.80;5.63;;;21.80;90.80;;;;;;5005901;28;20049;-56
2023/08/11 07:52:55;;;;;;;22.65;5.47;;;21.90;90.90;;;;;;5004582;28;20069;-56
2023/08/11 07:55:20;;;;;;;35.55;6.18;;;21.90;90.90;;;;;;5004151;28;20026;-57
2023/08/11 07:57:46;;;;;;;29.25;5.95;;;21.90;90.80;;;;;;5005778;28;20023;-56
2023/08/11 08:00:16;;;;;;;22.48;5.85;;;21.90;90.60;;;;;;5005412;28;20031;-56
2023/08/11 08:02:43;;;;;;;17.75;5.60;;;21.90;90.70;;;;;;5005466;28;20034;-56
2023/08/11 08:05:09;;;;;;;20.65;5.97;;;22.00;91.00;;;;;;5020133;28;20030;-56
2023/08/11 08:07:35;;;;;;;28.60;6.00;;;22.00;91.10;;;;;;5005774;28;20035;-56
2023/08/11 08:10:00;;;;;;;19.25;6.55;;;22.00;91.10;;;;;;5005480;28;20030;-56
2023/08/11 08:12:26;;;;;;;30.13;7.45;;;22.00;91.00;;;;;;5005483;28;20162;-56
2023/08/11 08:14:51;;;;;;;45.72;7.95;;;22.00;91.00;;;;;;5020373;28;20457;-56
2023/08/11 08:17:18;;;;;;;32.45;7.43;;;22.00;90.90;;;;;;5007662;28;20042;-56
2023/08/11 08:19:43;;;;;;;37.92;7.75;;;22.10;90.90;;;;;;5036400;28;20513;-57
2023/08/11 08:22:09;;;;;;;47.63;7.93;;;22.10;90.90;;;;;;5036347;28;20034;-56
2023/08/11 08:24:34;;;;;;;39.95;8.75;;;22.10;90.90;;;;;;5004738;28;20393;-56
2023/08/11 08:27:00;;;;;;;52.83;9.60;;;22.10;90.80;;;;;;5002594;28;20101;-56
2023/08/11 08:29:26;;;;;;;84.30;10.82;;;22.10;90.90;;;;;;5036731;28;20022;-56
2023/08/11 08:31:51;;;;;;;71.47;10.65;;;22.20;91.00;;;;;;5003535;28;20093;-57
2023/08/11 08:34:17;;;;;;;65.85;10.32;;;22.20;91.00;;;;;;4987512;28;20031;-56
2023/08/11 08:36:42;;;;;;;81.35;10.32;;;22.20;90.90;;;;;;5023088;28;20028;-57
2023/08/11 08:39:08;;;;;;;65.25;10.90;;;22.20;91.00;;;;;;5006890;28;20033;-56
2023/08/11 08:41:33;;;;;;;61.53;9.73;;;22.20;91.00;;;;;;5023070;28;20111;-56
2023/08/11 08:44:00;;;;;;;71.30;11.23;;;22.30;90.90;;;;;;5003810;28;20097;-56
2023/08/11 08:46:28;;;;;;;45.67;10.10;;;22.30;90.90;;;;;;5004749;28;20050;-56
2023/08/11 08:48:54;;;;;;;70.85;10.07;;;22.30;91.70;;;;;;5003625;28;20027;-56
2023/08/11 08:51:19;;;;;;;62.30;10.90;;;22.30;91.80;;;;;;5004030;28;20108;-56
2023/08/11 08:53:45;;;;;;;47.15;8.73;;;22.40;91.90;;;;;;4987633;28;20030;-56
2023/08/11 08:56:11;;;;;;;79.15;12.15;;;22.40;92.00;;;;;;5006729;28;20095;-56
2023/08/11 08:58:36;;;;;;;89.97;12.13;;;22.50;92.10;;;;;;4990372;28;20026;-56
2023/08/11 09:01:02;;;;;;;103.13;13.77;;;22.50;92.10;;;;;;5022777;28;20483;-57
2023/08/11 09:03:33;;;;;;;82.95;12.68;;;22.50;91.70;;;;;;5005807;28;20038;-57
2023/08/11 09:05:58;;;;;;;72.63;13.57;;;22.50;91.70;;;;;;5022431;28;20033;-56
2023/08/11 09:08:27;;;;;;;107.93;16.70;;;22.60;91.50;;;;;;5022713;28;20033;-56
2023/08/11 09:10:53;;;;;;;104.57;15.48;;;22.60;91.70;;;;;;5003486;28;20026;-57
2023/08/11 09:13:20;;;;;;;86.95;13.52;;;22.60;91.70;;;;;;5024162;28;20062;-57
2023/08/11 09:15:45;;;;;;;100.25;13.90;;;22.60;91.70;;;;;;5022100;28;20062;-56
2023/08/11 09:18:16;;;;;;;84.95;12.65;;;22.60;91.80;;;;;;5024424;28;20358;-56
2023/08/11 09:20:41;;;;;;;94.82;13.55;;;22.60;91.90;;;;;;5013485;28;20040;-57
2023/08/11 09:23:07;;;;;;;101.88;15.95;;;22.70;91.90;;;;;;5002974;28;20478;-56
2023/08/11 09:25:33;;;;;;;145.82;20.17;;;22.80;91.70;;;;;;5004063;28;20022;-56
2023/08/11 09:27:58;;;;;;;126.07;17.92;;;22.80;91.60;;;;;;4986582;28;20027;-57
2023/08/11 09:30:29;;;;;;;107.53;16.13;;;22.80;91.60;;;;;;5019567;28;20132;-57
2023/08/11 09:32:55;;;;;;;133.85;17.25;;;22.90;91.70;;;;;;5022718;28;20038;-57
2023/08/11 09:35:24;;;;;;;101.68;15.85;;;22.90;91.50;;;;;;5023448;28;20557;-56
2023/08/11 09:37:54;;;;;;;110.93;16.00;;;22.90;91.70;;;;;;5025230;28;22581;-57
2023/08/11 09:40:24;;;;;;;72.97;13.48;;;23.00;91.90;;;;;;5025964;28;20029;-56
2023/08/11 09:42:53;;;;;;;100.85;14.27;;;23.00;91.60;;;;;;5027469;28;20061;-57
2023/08/11 09:45:18;;;;;;;89.10;13.77;;;23.00;91.50;;;;;;5026068;28;20073;-56
2023/08/11 09:47:44;;;;;;;76.95;12.35;;;23.10;91.30;;;;;;4990604;28;20034;-57
2023/08/11 09:50:09;;;;;;;77.63;12.60;;;23.10;91.20;;;;;;5007274;28;20038;-56
2023/08/11 09:52:35;;;;;;;60.35;11.73;;;23.20;91.10;;;;;;5023601;28;20025;-56
2023/08/11 09:55:05;;;;;;;74.05;12.73;;;23.10;91.00;;;;;;5024675;28;20026;-56
2023/08/11 09:57:31;;;;;;;74.95;12.65;;;23.20;90.90;;;;;;5026323;28;20022;-56
2023/08/11 09:59:57;;;;;;;54.65;10.85;;;23.30;91.00;;;;;;5025725;28;20024;-56
2023/08/11 10:02:25;;;;;;;153.15;20.00;;;23.30;91.10;;;;;;5019065;28;20030;-57
2023/08/11 10:05:01;;;;;;;108.93;14.63;;;23.40;91.10;;;;;;5022405;28;20049;-56
2023/08/11 10:07:34;;;;;;;76.75;12.45;;;23.40;91.10;;;;;;5022649;28;20076;-57
2023/08/11 10:10:00;;;;;;;112.68;14.85;;;23.50;91.10;;;;;;5009261;28;20093;-56
2023/08/11 10:12:25;;;;;;;80.75;13.40;;;23.50;91.10;;;;;;5020705;28;20073;-56
2023/08/11 10:14:51;;;;;;;58.33;10.82;;;23.50;91.30;;;;;;5021358;28;20466;-56
2023/08/11 10:17:17;;;;;;;84.38;13.02;;;23.60;91.00;;;;;;5004339;28;20455;-56
2023/08/11 10:19:42;;;;;;;47.33;9.18;;;23.70;91.10;;;;;;5016575;28;20080;-56
2023/08/11 10:22:08;;;;;;;95.43;12.68;;;23.70;90.80;;;;;;5005537;28;20026;-56
2023/08/11 10:24:37;;;;;;;53.55;9.30;;;23.70;90.80;;;;;;5006480;28;20090;-56
2023/08/11 10:27:03;;;;;;;47.88;9.07;;;23.60;90.60;;;;;;5021333;28;20088;-56
2023/08/11 10:29:28;;;;;;;60.65;9.80;;;23.80;90.70;;;;;;5024968;28;20034;-56
2023/08/11 10:31:55;;;;;;;44.70;9.30;;;23.90;90.70;;;;;;5022439;28;21470;-57
2023/08/11 10:34:23;;;;;;;69.22;10.63;;;23.90;90.70;;;;;;5024182;28;20026;-56
2023/08/11 10:36:49;;;;;;;60.03;9.43;;;23.90;90.50;;;;;;5040375;28;20045;-56
2023/08/11 10:39:17;;;;;;;57.03;9.98;;;24.10;90.50;;;;;;5007841;28;20494;-56
2023/08/11 10:41:45;;;;;;;50.78;8.98;;;24.10;90.40;;;;;;5039802;28;20446;-56
2023/08/11 10:44:11;;;;;;;64.60;9.95;;;24.10;90.20;;;;;;5021182;28;20113;-57
2023/08/11 10:46:37;;;;;;;43.85;8.02;;;24.20;90.20;;;;;;5014275;28;20439;-55
2023/08/11 10:49:08;;;;;;;68.85;10.27;;;24.20;90.10;;;;;;5023122;28;20398;-56
2023/08/11 10:51:35;;;;;;;67.20;11.48;;;24.30;90.10;;;;;;5006690;28;20037;-56
2023/08/11 10:54:01;;;;;;;59.80;9.95;;;24.30;90.00;;;;;;5004515;28;20137;-56
2023/08/11 10:56:34;;;;;;;43.60;8.75;;;24.40;89.90;;;;;;5021436;28;20057;-55
2023/08/11 10:59:13;;;;;;;47.67;8.77;;;24.40;89.30;;;;;;5005301;28;20055;-56
2023/08/11 11:01:40;;;;;;;40.45;8.50;;;24.50;89.20;;;;;;5007893;28;20094;-56
2023/08/11 11:04:06;;;;;;;64.22;9.27;;;24.50;88.60;;;;;;5021615;28;20045;-56
2023/08/11 11:06:32;;;;;;;64.15;9.90;;;24.50;88.40;;;;;;5020966;28;20030;-55
2023/08/11 11:08:58;;;;;;;76.07;11.43;;;24.60;88.10;;;;;;5024155;28;20040;-56
2023/08/11 11:11:23;;;;;;;51.70;10.07;;;24.60;87.40;;;;;;5009939;28;20045;-56
2023/08/11 11:13:50;;;;;;;62.42;9.95;;;24.70;87.00;;;;;;5025165;28;20049;-56
2023/08/11 11:16:16;;;;;;;93.82;12.05;;;24.80;86.50;;;;;;5008315;28;20022;-56
2023/08/11 11:18:42;;;;;;;51.92;9.55;;;24.80;85.70;;;;;;5041187;28;20028;-56
2023/08/11 11:21:11;;;;;;;53.35;9.98;;;24.90;85.30;;;;;;5024698;28;20030;-56
2023/08/11 11:23:37;;;;;;;60.42;9.68;;;24.90;84.50;;;;;;5008074;28;20138;-56
2023/08/11 11:26:02;;;;;;;55.92;9.82;;;25.00;83.90;;;;;;5025753;28;20140;-56
2023/08/11 11:28:28;;;;;;;46.15;8.38;;;25.10;83.60;;;;;;5024134;28;20037;-57
2023/08/11 11:30:54;;;;;;;46.05;8.85;;;25.10;83.10;;;;;;5024160;28;20081;-56
2023/08/11 11:33:20;;;;;;;41.90;7.88;;;25.20;82.60;;;;;;5007637;28;20510;-56
2023/08/11 11:35:46;;;;;;;34.45;7.28;;;25.30;81.80;;;;;;5024367;28;20033;-56
2023/08/11 11:38:11;;;;;;;44.15;8.23;;;25.40;81.00;;;;;;5024118;28;20034;-57
2023/08/11 11:40:37;;;;;;;37.83;6.95;;;25.50;80.60;;;;;;5024014;28;20022;-56
2023/08/11 11:43:03;;;;;;;41.33;7.45;;;25.60;80.40;;;;;;5025461;28;20042;-57
2023/08/11 11:45:29;;;;;;;39.85;8.57;;;25.60;79.60;;;;;;5025288;28;20454;-56
2023/08/11 11:47:54;;;;;;;38.30;6.68;;;25.80;79.70;;;;;;5024193;28;20034;-57
2023/08/11 11:50:20;;;;;;;29.77;6.85;;;25.90;79.00;;;;;;5007355;28;20033;-57
2023/08/11 11:52:47;;;;;;;38.20;6.68;;;26.00;78.70;;;;;;5007840;28;20124;-56
2023/08/11 11:55:12;;;;;;;47.92;7.55;;;26.00;78.00;;;;;;5024758;28;20041;-56
2023/08/11 11:57:39;;;;;;;30.98;6.75;;;26.20;77.70;;;;;;5024548;28;20085;-56
2023/08/11 12:00:15;;;;;;;54.88;8.32;;;26.30;77.00;;;;;;5024282;28;20029;-56
2023/08/11 12:02:41;;;;;;;39.53;7.22;;;26.40;77.10;;;;;;5024360;28;20042;-57
2023/08/11 12:05:08;;;;;;;42.00;7.38;;;26.50;76.60;;;;;;5024041;28;20478;-56
2023/08/11 12:07:34;;;;;;;34.88;7.18;;;26.60;76.30;;;;;;5024160;28;20034;-56
2023/08/11 12:09:59;;;;;;;48.65;8.00;;;26.70;76.00;;;;;;5024038;28;20030;-56
2023/08/11 12:12:28;;;;;;;49.53;8.10;;;26.80;75.30;;;;;;5023549;28;20025;-56
2023/08/11 12:15:03;;;;;;;51.03;9.13;;;26.80;74.80;;;;;;5023326;28;20049;-57
2023/08/11 12:17:32;;;;;;;;;;;26.90;74.90;;;;;;5022744;28;20034;-57
2023/08/11 12:20:00;;;;;;;34.97;7.88;;;27.00;74.50;;;;;;5000208;28;19917;-57
2023/08/11 12:22:26;;;;;;;48.90;8.40;;;27.00;74.10;;;;;;5022424;28;20099;-56
2023/08/11 12:24:51;;;;;;;49.20;8.45;;;27.10;74.60;;;;;;5023380;28;20033;-57
2023/08/11 12:27:17;;;;;;;44.67;8.27;;;27.10;74.60;;;;;;5023220;28;20037;-56
2023/08/11 12:29:42;;;;;;;55.85;8.43;;;27.20;74.50;;;;;;5015481;28;20029;-56
2023/08/11 12:32:08;;;;;;;43.85;8.07;;;27.20;74.40;;;;;;5020927;28;20034;-56
2023/08/11 12:34:33;;;;;;;69.80;10.70;;;27.30;74.50;;;;;;5037061;28;20072;-56